Aviation Digital Data Service (ADDS)

Output produced by METARs form (2356 UTC 24 April 2019)
found at http://www.aviationweather.gov/metar/data/
 
Forecast for: GQNO (NOUAKCHOTT/OUMTO, MR)
Text: TAF GQNO 242300Z 2500/2606 36010KT 8000 NSC
Forecast period: 0000 to 0900 UTC 25 April 2019
Forecast type: FROM: standard forecast or significant change
Winds: from the N (360 degrees) at 12 MPH (10 knots; 5.1 m/s)
Visibility: 5 miles (8 km)
Ceiling: unknown
Clouds: missing
Weather: no significant weather forecast for this period
Text: BECMG 2509/2511 08012KT
Forecast period: 0900 to 1600 UTC 25 April 2019
Forecast type: BECOMING: Conditions expected to become as follows by 1100 UTC 25 April 2019
Winds: from the E (80 degrees) at 14 MPH (12 knots; 6.2 m/s)
Visibility: 5 miles (8 km)
Ceiling: unknown
Clouds: missing
Weather: no significant weather forecast for this period
Text: PROB40
Forecast period: 1000 to 1600 UTC 25 April 2019
Forecast type: TEMPORARY: The following changes expected for less than half the time period
Visibility: 2.80 miles (4.51 km)
Ceiling: unknown
Clouds: missing
Weather: BLDU  (blowing dust)
Text: TEMPO 2510/2516 4500 BLDU
Forecast period: 1600 UTC 25 April 2019 to 0600 UTC 26 April 2019
Forecast type: BECOMING: Conditions expected to become as follows by 1800 UTC 25 April 2019
Winds: from the NNW (330 degrees) at 12 MPH (10 knots; 5.1 m/s)
Visibility: 5 miles (8 km)
Ceiling: unknown
Clouds: missing
Weather: no significant weather forecast for this period